createdAt,value
2023-04-15T00:00:11.314Z,2249.00
2023-04-15T00:01:11.295Z,2255.00
2023-04-15T00:02:11.350Z,2239.00
2023-04-15T00:03:11.453Z,2265.00
2023-04-15T00:04:11.317Z,2253.00
2023-04-15T00:05:11.253Z,2235.00
2023-04-15T00:06:11.227Z,2231.00
2023-04-15T00:07:11.212Z,2239.00
2023-04-15T00:08:11.290Z,2240.00
2023-04-15T00:09:11.186Z,2243.00
2023-04-15T00:10:11.190Z,2232.00
2023-04-15T00:11:11.183Z,2224.00
2023-04-15T00:12:11.173Z,2220.00
2023-04-15T00:13:11.180Z,2237.00
2023-04-15T00:14:11.151Z,2228.00
2023-04-15T00:15:11.144Z,2224.00
2023-04-15T00:16:11.212Z,2218.00
2023-04-15T00:17:11.129Z,2238.00
2023-04-15T00:18:11.129Z,2233.00
2023-04-15T00:19:11.116Z,2221.00
2023-04-15T00:20:11.111Z,2212.00
2023-04-15T00:21:11.100Z,2217.00
2023-04-15T00:22:11.090Z,2212.00
2023-04-15T00:23:11.120Z,2209.00
2023-04-15T00:24:11.152Z,2217.00
2023-04-15T00:25:11.184Z,2206.00
2023-04-15T00:26:11.209Z,2206.00
2023-04-15T00:27:11.224Z,2195.00
2023-04-15T00:28:11.232Z,2201.00
2023-04-15T00:29:11.248Z,2203.00
2023-04-15T00:30:11.248Z,2213.00
2023-04-15T00:31:11.312Z,2188.00
2023-04-15T00:32:11.263Z,2191.00
2023-04-15T00:33:11.314Z,2212.00
2023-04-15T00:34:11.341Z,2204.00
2023-04-15T00:35:11.407Z,2194.00
2023-04-15T00:36:11.428Z,2197.00
2023-04-15T00:37:11.449Z,2193.00
2023-04-15T00:38:11.452Z,2199.00
2023-04-15T00:39:11.468Z,2190.00
2023-04-15T00:40:11.443Z,2190.00
2023-04-15T00:41:11.422Z,2192.00
2023-04-15T00:42:11.414Z,2191.00
2023-04-15T00:43:11.402Z,2197.00
2023-04-15T00:44:11.409Z,2190.00
2023-04-15T00:45:11.387Z,2200.00
2023-04-15T00:46:11.422Z,2175.00
2023-04-15T00:47:11.363Z,2176.00
2023-04-15T00:48:11.352Z,2176.00
2023-04-15T00:49:11.350Z,2180.00
2023-04-15T00:50:11.320Z,2175.00
2023-04-15T00:51:11.314Z,2199.00
2023-04-15T00:52:11.300Z,2183.00
2023-04-15T00:53:11.297Z,2187.00
2023-04-15T00:54:11.265Z,2183.00
2023-04-15T00:55:11.300Z,2185.00
2023-04-15T00:56:11.230Z,2180.00
2023-04-15T00:57:11.231Z,2179.00
2023-04-15T00:58:11.230Z,2174.00
2023-04-15T00:59:11.201Z,2169.00
2023-04-15T01:00:11.221Z,2158.00
2023-04-15T01:01:11.194Z,2170.00
2023-04-15T01:02:11.241Z,2179.00
2023-04-15T01:03:11.368Z,2158.00
2023-04-15T01:04:11.257Z,2163.00
2023-04-15T01:05:11.160Z,2164.00
2023-04-15T01:06:11.125Z,2166.00
2023-04-15T01:07:11.128Z,2164.00
2023-04-15T01:08:11.109Z,2167.00
2023-04-15T01:09:11.107Z,2177.00
2023-04-15T01:10:11.068Z,2154.00
2023-04-15T01:11:11.070Z,2155.00
2023-04-15T01:12:11.032Z,2159.00
2023-04-15T01:13:11.032Z,2160.00
2023-04-15T01:14:11.009Z,2159.00
2023-04-15T01:15:10.993Z,2158.00
2023-04-15T01:16:11.007Z,2155.00
2023-04-15T01:17:10.959Z,2158.00
2023-04-15T01:18:10.945Z,2164.00
2023-04-15T01:19:10.954Z,2162.00
2023-04-15T01:20:10.924Z,2163.00
2023-04-15T01:21:10.900Z,2165.00
2023-04-15T01:22:10.900Z,2163.00
2023-04-15T01:23:10.892Z,2155.00
2023-04-15T01:24:10.888Z,2155.00
2023-04-15T01:25:10.898Z,2137.00
2023-04-15T01:26:10.857Z,2149.00
2023-04-15T01:27:10.850Z,2136.00
2023-04-15T01:28:10.842Z,2136.00
2023-04-15T01:29:10.840Z,2136.00
2023-04-15T01:30:10.830Z,2141.00
2023-04-15T01:31:10.865Z,2135.00
2023-04-15T01:32:10.812Z,2141.00
2023-04-15T01:33:10.804Z,2140.00
2023-04-15T01:34:10.792Z,2127.00
2023-04-15T01:35:10.801Z,2144.00
2023-04-15T01:36:10.791Z,2141.00
2023-04-15T01:37:10.770Z,2122.00
2023-04-15T01:38:10.764Z,2138.00
2023-04-15T01:39:10.759Z,2130.00
2023-04-15T01:40:10.735Z,2129.00
2023-04-15T01:41:10.736Z,2124.00
2023-04-15T01:42:10.729Z,2114.00
2023-04-15T01:43:10.735Z,2120.00
2023-04-15T01:44:10.735Z,2121.00
2023-04-15T01:45:10.706Z,2119.00
2023-04-15T01:46:10.746Z,2118.00
2023-04-15T01:47:10.707Z,2111.00
2023-04-15T01:48:10.717Z,2107.00
2023-04-15T01:49:10.732Z,2108.00
2023-04-15T01:50:10.709Z,2109.00
2023-04-15T01:51:10.749Z,2108.00
2023-04-15T01:52:10.729Z,2116.00
2023-04-15T01:53:10.693Z,2113.00
2023-04-15T01:54:10.691Z,2130.00
2023-04-15T01:55:10.674Z,2104.00
2023-04-15T01:56:10.681Z,2119.00
2023-04-15T01:57:10.672Z,2112.00
2023-04-15T01:58:10.674Z,2106.00
2023-04-15T01:59:10.684Z,2098.00
2023-04-15T02:00:10.668Z,2103.00
2023-04-15T02:01:10.708Z,2105.00
2023-04-15T02:02:10.741Z,2110.00
2023-04-15T02:03:10.693Z,2101.00
2023-04-15T02:04:10.902Z,2081.00
2023-04-15T02:05:10.637Z,2090.00
2023-04-15T02:06:10.645Z,2100.00
2023-04-15T02:07:10.634Z,2087.00
2023-04-15T02:08:10.645Z,2090.00
2023-04-15T02:09:10.615Z,2087.00
2023-04-15T02:10:10.637Z,2094.00
2023-04-15T02:11:10.606Z,2077.00
2023-04-15T02:12:10.595Z,2092.00
2023-04-15T02:13:10.595Z,2079.00
2023-04-15T02:14:10.614Z,2073.00
2023-04-15T02:15:10.596Z,2079.00
2023-04-15T02:16:10.622Z,2069.00
2023-04-15T02:17:10.612Z,2082.00
2023-04-15T02:18:10.615Z,2074.00
2023-04-15T02:19:10.604Z,2076.00
2023-04-15T02:20:10.660Z,2068.00
2023-04-15T02:21:10.620Z,2072.00
2023-04-15T02:22:10.610Z,2056.00
2023-04-15T02:23:10.603Z,2069.00
2023-04-15T02:24:10.596Z,2059.00
2023-04-15T02:25:10.614Z,2063.00
2023-04-15T02:26:10.599Z,2065.00
2023-04-15T02:27:10.628Z,2051.00
2023-04-15T02:28:10.597Z,2070.00
2023-04-15T02:29:10.627Z,2080.00
2023-04-15T02:30:10.614Z,2051.00
2023-04-15T02:31:10.652Z,2057.00
2023-04-15T02:32:10.657Z,2080.00
2023-04-15T02:33:10.645Z,2051.00
2023-04-15T02:34:10.637Z,2045.00
2023-04-15T02:35:10.657Z,2049.00
2023-04-15T02:36:10.648Z,2046.00
2023-04-15T02:37:10.661Z,2044.00
2023-04-15T02:38:10.655Z,2051.00
2023-04-15T02:39:10.684Z,2036.00
2023-04-15T02:40:10.673Z,2038.00
2023-04-15T02:41:10.670Z,2041.00
2023-04-15T02:42:10.683Z,2049.00
2023-04-15T02:43:10.687Z,2020.00
2023-04-15T02:44:11.504Z,2017.00
2023-04-15T02:45:10.724Z,2023.00
2023-04-15T02:46:10.742Z,1995.00
2023-04-15T02:47:10.713Z,1939.00
2023-04-15T02:48:10.738Z,1859.00
2023-04-15T02:49:10.752Z,1799.00
2023-04-15T02:50:10.780Z,1729.00
2023-04-15T02:51:10.766Z,1679.00
2023-04-15T02:52:10.786Z,1627.00
2023-04-15T02:53:10.823Z,1573.00
2023-04-15T02:54:10.874Z,1530.00
2023-04-15T02:55:10.907Z,1485.00
2023-04-15T02:56:10.933Z,1443.00
2023-04-15T02:57:11.010Z,1403.00
2023-04-15T02:58:11.054Z,1365.00
2023-04-15T02:59:11.118Z,1325.00
2023-04-15T03:00:11.202Z,1286.00
2023-04-15T03:01:11.277Z,1239.00
2023-04-15T03:02:11.428Z,1219.00
2023-04-15T03:03:11.498Z,1201.00
2023-04-15T03:04:11.586Z,1150.00
2023-04-15T03:05:11.453Z,1121.00
2023-04-15T03:06:11.480Z,1079.00
2023-04-15T03:07:11.499Z,1064.00
2023-04-15T03:08:11.557Z,1038.00
2023-04-15T03:09:11.567Z,1021.00
2023-04-15T03:10:11.624Z,1009.00
2023-04-15T03:11:11.646Z,996.00
2023-04-15T03:12:11.670Z,969.00
2023-04-15T03:13:11.715Z,950.00
2023-04-15T03:14:11.756Z,925.00
2023-04-15T03:15:11.814Z,906.00
2023-04-15T03:16:11.858Z,888.00
2023-04-15T03:17:11.865Z,874.00
2023-04-15T03:18:11.913Z,864.00
2023-04-15T03:19:11.925Z,864.00
2023-04-15T03:20:11.981Z,859.00
2023-04-15T03:21:11.975Z,845.00
2023-04-15T03:22:11.982Z,834.00
2023-04-15T03:23:11.989Z,815.00
2023-04-15T03:24:11.998Z,806.00
2023-04-15T03:25:12.027Z,795.00
2023-04-15T03:26:12.034Z,786.00
2023-04-15T03:27:12.053Z,779.00
2023-04-15T03:28:12.069Z,767.00
2023-04-15T03:29:12.114Z,758.00
2023-04-15T03:30:12.110Z,740.00
2023-04-15T03:31:12.189Z,725.00
2023-04-15T03:32:12.154Z,712.00
2023-04-15T03:33:12.159Z,688.00
2023-04-15T03:34:12.177Z,685.00
2023-04-15T03:35:12.207Z,675.00
2023-04-15T03:36:12.215Z,667.00
2023-04-15T03:37:12.257Z,665.00
2023-04-15T03:38:12.250Z,666.00
2023-04-15T03:39:12.280Z,661.00
2023-04-15T03:40:12.326Z,666.00
2023-04-15T03:41:12.359Z,663.00
2023-04-15T03:42:12.390Z,659.00
2023-04-15T03:43:12.443Z,658.00
2023-04-15T03:44:12.489Z,654.00
2023-04-15T03:45:12.560Z,652.00
2023-04-15T03:46:12.658Z,650.00
2023-04-15T03:47:12.663Z,650.00
2023-04-15T03:48:17.905Z,649.00
2023-04-15T03:49:13.745Z,649.00
2023-04-15T03:50:12.797Z,644.00
2023-04-15T03:51:12.784Z,641.00
2023-04-15T03:52:12.829Z,639.00
2023-04-15T03:53:12.851Z,635.00
2023-04-15T03:54:12.859Z,633.00
2023-04-15T03:55:12.885Z,638.00
2023-04-15T03:56:12.874Z,627.00
2023-04-15T03:57:12.900Z,627.00
2023-04-15T03:58:12.981Z,625.00
2023-04-15T03:59:12.929Z,623.00
2023-04-15T04:00:12.971Z,625.00
2023-04-15T04:01:13.002Z,621.00
2023-04-15T04:02:13.059Z,620.00
2023-04-15T04:03:13.126Z,620.00
2023-04-15T04:04:13.151Z,621.00
2023-04-15T04:05:13.082Z,618.00
2023-04-15T04:06:13.133Z,615.00
2023-04-15T04:07:13.194Z,614.00
2023-04-15T04:08:13.253Z,614.00
2023-04-15T04:09:13.324Z,602.00
2023-04-15T04:10:13.402Z,603.00
2023-04-15T04:11:13.483Z,600.00
2023-04-15T04:12:13.535Z,595.00
2023-04-15T04:13:13.609Z,594.00
2023-04-15T04:14:13.707Z,590.00
2023-04-15T04:15:13.773Z,595.00
2023-04-15T04:16:13.897Z,592.00
2023-04-15T04:17:13.973Z,589.00
2023-04-15T04:18:13.947Z,590.00
2023-04-15T04:19:13.957Z,590.00
2023-04-15T04:20:13.967Z,590.00
2023-04-15T04:21:14.004Z,588.00
2023-04-15T04:22:14.019Z,588.00
2023-04-15T04:23:14.044Z,588.00
2023-04-15T04:24:14.058Z,587.00
2023-04-15T04:25:14.092Z,587.00
2023-04-15T04:26:14.121Z,584.00
2023-04-15T04:27:14.121Z,580.00
2023-04-15T04:28:14.171Z,580.00
2023-04-15T04:29:14.203Z,573.00
2023-04-15T04:30:14.296Z,564.00
2023-04-15T04:31:14.377Z,562.00
2023-04-15T04:32:14.488Z,557.00
2023-04-15T04:33:14.531Z,555.00
2023-04-15T04:34:14.610Z,553.00
2023-04-15T04:35:14.706Z,550.00
2023-04-15T04:36:14.804Z,547.00
2023-04-15T04:37:14.879Z,547.00
2023-04-15T04:38:14.964Z,545.00
2023-04-15T04:39:15.052Z,547.00
2023-04-15T04:40:15.119Z,540.00
2023-04-15T04:41:15.240Z,543.00
2023-04-15T04:42:15.282Z,540.00
2023-04-15T04:43:15.376Z,532.00
2023-04-15T04:44:15.465Z,530.00
2023-04-15T04:45:15.556Z,532.00
2023-04-15T04:46:15.637Z,528.00
2023-04-15T04:47:15.706Z,528.00
2023-04-15T04:48:15.791Z,530.00
2023-04-15T04:49:15.887Z,530.00
2023-04-15T04:50:15.976Z,532.00
2023-04-15T04:51:16.070Z,531.00
2023-04-15T04:52:16.130Z,531.00
2023-04-15T04:53:16.226Z,528.00
2023-04-15T04:54:16.305Z,532.00
2023-04-15T04:55:16.394Z,528.00
2023-04-15T04:56:16.495Z,529.00
2023-04-15T04:57:16.607Z,530.00
2023-04-15T04:58:16.662Z,528.00
2023-04-15T04:59:17.012Z,522.00
2023-04-15T05:00:16.855Z,516.00
2023-04-15T05:01:16.954Z,514.00
2023-04-15T05:02:17.130Z,512.00
2023-04-15T05:03:17.424Z,517.00
2023-04-15T05:04:17.286Z,512.00
2023-04-15T05:05:17.281Z,510.00
2023-04-15T05:06:17.386Z,511.00
2023-04-15T05:07:17.467Z,512.00
2023-04-15T05:08:17.562Z,506.00
2023-04-15T05:09:17.663Z,502.00
2023-04-15T05:10:17.762Z,504.00
2023-04-15T05:11:17.854Z,502.00
2023-04-15T05:12:17.941Z,504.00
2023-04-15T05:13:18.034Z,505.00
2023-04-15T05:14:18.161Z,504.00
2023-04-15T05:15:18.222Z,505.00
2023-04-15T05:16:18.448Z,511.00
2023-04-15T05:17:18.398Z,517.00
2023-04-15T05:18:18.461Z,513.00
2023-04-15T05:19:18.531Z,515.00
2023-04-15T05:20:18.627Z,520.00
2023-04-15T05:21:18.686Z,528.00
2023-04-15T05:22:18.742Z,527.00
2023-04-15T05:23:18.839Z,529.00
2023-04-15T05:24:18.912Z,527.00
2023-04-15T05:25:18.983Z,530.00
2023-04-15T05:26:19.075Z,533.00
2023-04-15T05:27:19.150Z,533.00
2023-04-15T05:28:19.252Z,534.00
2023-04-15T05:29:19.362Z,537.00
2023-04-15T05:30:19.451Z,536.00
2023-04-15T05:31:19.600Z,541.00
2023-04-15T05:32:19.679Z,538.00
2023-04-15T05:33:19.687Z,545.00
2023-04-15T05:34:19.731Z,544.00
2023-04-15T05:35:19.856Z,546.00
2023-04-15T05:36:19.922Z,547.00
2023-04-15T05:37:20.007Z,545.00
2023-04-15T05:38:20.059Z,544.00
2023-04-15T05:39:20.151Z,543.00
2023-04-15T05:40:20.212Z,543.00
2023-04-15T05:41:20.306Z,545.00
2023-04-15T05:42:20.374Z,540.00
2023-04-15T05:43:20.465Z,545.00
2023-04-15T05:44:20.579Z,545.00
2023-04-15T05:45:20.657Z,545.00
2023-04-15T05:46:20.795Z,537.00
2023-04-15T05:47:20.844Z,537.00
2023-04-15T05:49:39.852Z,500.00
2023-04-15T05:50:39.849Z,500.00
2023-04-15T05:51:39.816Z,500.00
2023-04-15T05:52:39.813Z,500.00
2023-04-15T05:53:39.790Z,500.00
2023-04-15T05:54:39.781Z,500.00
2023-04-15T05:55:39.760Z,501.00
2023-04-15T05:56:39.748Z,500.00
2023-04-15T05:57:39.744Z,501.00
2023-04-15T05:58:39.725Z,500.00
2023-04-15T05:59:39.709Z,500.00
2023-04-15T06:00:39.717Z,500.00
2023-04-15T06:01:39.697Z,499.00
2023-04-15T06:02:39.728Z,501.00
2023-04-15T06:03:39.750Z,503.00
2023-04-15T06:04:39.699Z,501.00
2023-04-15T06:05:39.633Z,500.00
2023-04-15T06:06:39.632Z,504.00
2023-04-15T06:07:39.619Z,501.00
2023-04-15T06:08:39.605Z,506.00
2023-04-15T06:09:39.590Z,506.00
2023-04-15T06:10:39.577Z,506.00
2023-04-15T06:11:39.566Z,508.00
2023-04-15T06:12:39.558Z,506.00
2023-04-15T06:13:39.538Z,505.00
2023-04-15T06:14:39.535Z,508.00
2023-04-15T06:15:39.526Z,505.00
2023-04-15T06:16:39.535Z,501.00
2023-04-15T06:17:39.548Z,503.00
2023-04-15T06:18:39.478Z,504.00
2023-04-15T06:19:39.473Z,503.00
2023-04-15T06:20:39.461Z,502.00
2023-04-15T06:21:39.451Z,505.00
2023-04-15T06:22:39.444Z,505.00
2023-04-15T06:23:39.437Z,504.00
2023-04-15T06:24:39.435Z,506.00
2023-04-15T06:25:39.420Z,502.00
2023-04-15T06:26:39.427Z,504.00
2023-04-15T06:27:39.398Z,500.00
2023-04-15T06:28:39.397Z,504.00
2023-04-15T06:29:39.364Z,506.00
2023-04-15T06:30:39.361Z,505.00
2023-04-15T06:31:39.386Z,500.00
2023-04-15T06:32:39.352Z,501.00
2023-04-15T06:33:39.320Z,504.00
2023-04-15T06:34:39.315Z,501.00
2023-04-15T06:35:39.326Z,500.00
2023-04-15T06:36:39.362Z,500.00
2023-04-15T06:37:39.305Z,497.00
2023-04-15T06:38:39.296Z,481.00
2023-04-15T06:39:39.276Z,476.00
2023-04-15T06:40:39.251Z,467.00
2023-04-15T06:41:39.273Z,468.00
2023-04-15T06:42:39.247Z,500.00
2023-04-15T06:43:39.248Z,500.00
2023-04-15T06:44:39.286Z,499.00
2023-04-15T06:45:39.415Z,501.00
2023-04-15T06:46:39.402Z,501.00
2023-04-15T06:47:39.504Z,500.00
2023-04-15T06:48:39.494Z,500.00
2023-04-15T06:49:39.546Z,500.00
2023-04-15T06:50:39.584Z,503.00
2023-04-15T06:51:39.621Z,503.00
2023-04-15T06:52:39.617Z,503.00
2023-04-15T06:53:39.607Z,502.00
2023-04-15T06:54:39.635Z,502.00
2023-04-15T06:55:39.694Z,503.00
2023-04-15T06:56:39.714Z,501.00
2023-04-15T06:57:39.756Z,500.00
2023-04-15T06:58:39.809Z,503.00
2023-04-15T06:59:39.861Z,503.00
2023-04-15T07:00:39.901Z,500.00
2023-04-15T07:01:39.952Z,500.00
2023-04-15T07:02:40.101Z,502.00
2023-04-15T07:03:40.006Z,501.00
2023-04-15T07:04:40.264Z,502.00
2023-04-15T07:05:40.061Z,501.00
2023-04-15T07:06:40.064Z,503.00
2023-04-15T07:07:40.102Z,503.00
2023-04-15T07:08:40.136Z,507.00
2023-04-15T07:09:40.204Z,502.00
2023-04-15T07:10:40.250Z,503.00
2023-04-15T07:11:40.255Z,503.00
2023-04-15T07:12:40.245Z,496.00
2023-04-15T07:13:40.221Z,489.00
2023-04-15T07:14:40.214Z,483.00
2023-04-15T07:15:40.186Z,471.00
2023-04-15T07:16:40.271Z,500.00
2023-04-15T07:17:40.253Z,501.00
2023-04-15T07:18:40.171Z,504.00
2023-04-15T07:19:40.216Z,500.00
2023-04-15T07:20:40.286Z,503.00
2023-04-15T07:21:41.949Z,501.00
2023-04-15T07:22:40.407Z,500.00
2023-04-15T07:23:40.498Z,500.00
2023-04-15T07:24:40.509Z,500.00
2023-04-15T07:25:40.560Z,501.00
2023-04-15T07:26:40.641Z,500.00
2023-04-15T07:27:40.682Z,504.00
2023-04-15T07:28:40.729Z,501.00
2023-04-15T07:29:40.804Z,500.00
2023-04-15T07:30:40.870Z,504.00
2023-04-15T07:31:40.899Z,500.00
2023-04-15T07:32:41.010Z,502.00
2023-04-15T07:33:40.999Z,503.00
2023-04-15T07:34:41.063Z,500.00
2023-04-15T07:35:41.104Z,501.00
2023-04-15T07:36:41.167Z,501.00
2023-04-15T07:37:41.241Z,502.00
2023-04-15T07:38:41.265Z,501.00
2023-04-15T07:39:41.301Z,501.00
2023-04-15T07:40:41.344Z,503.00
2023-04-15T07:41:41.378Z,502.00
2023-04-15T07:42:41.536Z,505.00
2023-04-15T07:43:41.451Z,503.00
2023-04-15T07:44:41.505Z,513.00
2023-04-15T07:45:41.576Z,511.00
2023-04-15T07:46:41.600Z,511.00
2023-04-15T07:47:41.658Z,514.00
2023-04-15T07:48:41.658Z,516.00
2023-04-15T07:49:41.704Z,513.00
2023-04-15T07:50:41.743Z,509.00
2023-04-15T07:51:41.818Z,504.00
2023-04-15T07:52:41.868Z,501.00
2023-04-15T07:53:41.905Z,503.00
2023-04-15T07:54:41.950Z,500.00
2023-04-15T07:55:41.987Z,502.00
2023-04-15T07:56:42.075Z,503.00
2023-04-15T07:57:42.111Z,500.00
2023-04-15T07:58:42.171Z,501.00
2023-04-15T07:59:42.208Z,502.00
2023-04-15T08:00:42.272Z,500.00
2023-04-15T08:01:42.298Z,500.00
2023-04-15T08:02:42.547Z,501.00
2023-04-15T08:03:42.645Z,501.00
2023-04-15T08:04:42.533Z,504.00
2023-04-15T08:05:42.431Z,503.00
2023-04-15T08:06:42.431Z,497.00
2023-04-15T08:07:42.422Z,486.00
2023-04-15T08:08:42.374Z,482.00
2023-04-15T08:09:42.348Z,478.00
2023-04-15T08:10:42.328Z,500.00
2023-04-15T08:11:42.325Z,500.00
2023-04-15T08:12:42.314Z,504.00
2023-04-15T08:13:42.326Z,502.00
2023-04-15T08:14:42.377Z,500.00
2023-04-15T08:15:42.436Z,500.00
2023-04-15T08:16:42.525Z,500.00
2023-04-15T08:17:42.573Z,500.00
2023-04-15T08:18:42.476Z,494.00
2023-04-15T08:19:42.469Z,491.00
2023-04-15T08:20:42.446Z,485.00
2023-04-15T08:21:42.418Z,477.00
2023-04-15T08:22:42.430Z,504.00
2023-04-15T08:23:42.400Z,501.00
2023-04-15T08:24:42.372Z,501.00
2023-04-15T08:25:42.384Z,504.00
2023-04-15T08:26:42.447Z,505.00
2023-04-15T08:27:42.470Z,500.00
2023-04-15T08:28:42.495Z,504.00
2023-04-15T08:29:42.547Z,502.00
2023-04-15T08:30:42.595Z,500.00
2023-04-15T08:31:42.686Z,501.00
2023-04-15T08:32:42.716Z,502.00
2023-04-15T08:33:42.722Z,502.00
2023-04-15T08:34:42.741Z,501.00
2023-04-15T08:35:42.782Z,502.00
2023-04-15T08:36:42.827Z,504.00
2023-04-15T08:37:42.905Z,503.00
2023-04-15T08:38:42.881Z,506.00
2023-04-15T08:39:42.910Z,508.00
2023-04-15T08:40:42.962Z,504.00
2023-04-15T08:41:42.990Z,505.00
2023-04-15T08:42:44.431Z,508.00
2023-04-15T08:43:43.042Z,508.00
2023-04-15T08:44:43.014Z,508.00
2023-04-15T08:45:42.990Z,508.00
2023-04-15T08:46:43.015Z,512.00
2023-04-15T08:47:43.054Z,509.00
2023-04-15T08:48:42.966Z,518.00
2023-04-15T08:49:42.876Z,538.00
2023-04-15T08:50:42.814Z,579.00
2023-04-15T08:51:42.804Z,655.00
2023-04-15T08:52:42.796Z,694.00
2023-04-15T08:53:42.696Z,745.00
2023-04-15T08:54:42.638Z,814.00
2023-04-15T08:55:42.616Z,870.00
2023-04-15T08:56:42.625Z,915.00
2023-04-15T08:57:42.514Z,963.00
2023-04-15T08:58:42.459Z,1016.00
2023-04-15T08:59:42.429Z,1076.00
2023-04-15T09:00:42.373Z,1151.00
2023-04-15T09:01:42.381Z,1214.00
2023-04-15T09:02:42.449Z,1279.00
2023-04-15T09:03:42.457Z,1342.00
2023-04-15T09:04:42.352Z,1384.00
2023-04-15T09:05:42.359Z,1457.00
2023-04-15T09:06:42.370Z,1483.00
2023-04-15T09:07:42.370Z,1551.00
2023-04-15T09:08:42.354Z,1604.00
2023-04-15T09:09:42.344Z,1638.00
2023-04-15T09:10:42.336Z,1681.00
2023-04-15T09:11:42.332Z,1728.00
2023-04-15T09:12:42.349Z,1780.00
2023-04-15T09:13:42.342Z,1824.00
2023-04-15T09:14:42.325Z,1881.00
2023-04-15T09:15:42.323Z,1931.00
2023-04-15T09:16:42.367Z,1938.00
2023-04-15T09:17:42.319Z,2007.00
2023-04-15T09:18:42.300Z,1996.00
2023-04-15T09:19:42.287Z,2041.00
2023-04-15T09:20:42.283Z,2083.00
2023-04-15T09:21:42.239Z,2110.00
2023-04-15T09:22:42.257Z,2115.00
2023-04-15T09:23:42.205Z,2175.00
2023-04-15T09:24:42.213Z,2197.00
2023-04-15T09:25:42.157Z,2232.00
2023-04-15T09:26:42.163Z,2261.00
2023-04-15T09:27:42.121Z,2243.00
2023-04-15T09:28:42.098Z,2279.00
2023-04-15T09:29:42.079Z,2285.00
2023-04-15T09:30:42.072Z,2308.00
2023-04-15T09:31:41.986Z,2336.00
2023-04-15T09:32:41.956Z,2337.00
2023-04-15T09:33:41.890Z,2341.00
2023-04-15T09:34:41.842Z,2352.00
2023-04-15T09:35:41.790Z,2376.00
2023-04-15T09:36:41.741Z,2434.00
2023-04-15T09:37:41.700Z,2456.00
2023-04-15T09:38:41.620Z,2443.00
2023-04-15T09:39:41.573Z,2494.00
2023-04-15T09:40:41.515Z,2488.00
2023-04-15T09:41:41.465Z,2521.00
2023-04-15T09:42:41.399Z,2534.00
2023-04-15T09:43:41.338Z,2552.00
2023-04-15T09:44:41.278Z,2562.00
2023-04-15T09:45:41.287Z,2581.00
2023-04-15T09:46:41.190Z,2591.00
2023-04-15T09:47:41.102Z,2606.00
2023-04-15T09:48:41.065Z,2620.00
2023-04-15T09:49:41.047Z,2639.00
2023-04-15T09:50:40.945Z,2655.00
2023-04-15T09:51:42.174Z,2664.00
2023-04-15T09:52:40.833Z,2668.00
2023-04-15T09:53:40.795Z,2681.00
2023-04-15T09:54:40.759Z,2697.00
2023-04-15T09:55:40.739Z,2704.00
2023-04-15T09:56:40.710Z,2713.00
2023-04-15T09:57:40.725Z,2728.00
2023-04-15T09:58:40.692Z,2739.00
2023-04-15T09:59:40.634Z,2742.00
2023-04-15T10:00:40.537Z,2749.00
2023-04-15T10:01:40.557Z,2770.00
2023-04-15T10:02:40.585Z,2778.00
2023-04-15T10:03:40.573Z,2777.00
2023-04-15T10:04:40.436Z,2785.00
2023-04-15T10:05:40.355Z,2786.00
2023-04-15T10:06:40.302Z,2787.00
2023-04-15T10:07:40.246Z,2795.00
2023-04-15T10:08:40.170Z,2806.00
2023-04-15T10:09:40.121Z,2838.00
2023-04-15T10:10:40.049Z,2826.00
2023-04-15T10:11:39.984Z,2841.00
2023-04-15T10:12:39.924Z,2857.00
2023-04-15T10:13:39.865Z,2846.00
2023-04-15T10:14:39.841Z,2846.00
2023-04-15T10:15:39.866Z,2853.00
2023-04-15T10:16:39.817Z,2863.00
2023-04-15T10:17:39.865Z,2869.00
2023-04-15T10:18:39.819Z,2879.00
2023-04-15T10:19:39.811Z,2879.00
2023-04-15T10:20:39.811Z,2889.00
2023-04-15T10:21:39.827Z,2877.00
2023-04-15T10:22:39.821Z,2905.00
2023-04-15T10:23:39.758Z,2906.00
2023-04-15T10:24:39.701Z,2909.00
2023-04-15T10:25:39.643Z,2918.00
2023-04-15T10:26:39.591Z,2919.00
2023-04-15T10:27:39.513Z,2937.00
2023-04-15T10:28:39.443Z,2937.00
2023-04-15T10:29:39.393Z,2937.00
2023-04-15T10:30:39.320Z,2947.00
2023-04-15T10:31:39.308Z,2950.00
2023-04-15T10:32:39.203Z,2952.00
2023-04-15T10:33:39.194Z,2948.00
2023-04-15T10:34:39.189Z,2964.00
2023-04-15T10:35:39.179Z,2974.00
2023-04-15T10:36:39.154Z,2969.00
2023-04-15T10:37:39.128Z,2979.00
2023-04-15T10:38:39.097Z,2970.00
2023-04-15T10:39:39.128Z,2975.00
2023-04-15T10:40:39.081Z,2974.00
2023-04-15T10:41:39.082Z,2981.00
2023-04-15T10:42:39.063Z,2977.00
2023-04-15T10:43:39.057Z,2978.00
2023-04-15T10:44:39.076Z,2977.00
2023-04-15T10:45:39.054Z,2989.00
2023-04-15T10:46:39.121Z,2983.00
2023-04-15T10:47:39.081Z,2981.00
2023-04-15T10:48:39.021Z,2982.00
2023-04-15T10:49:39.031Z,2991.00
2023-04-15T10:50:39.008Z,3001.00
2023-04-15T10:51:39.007Z,2985.00
2023-04-15T10:52:38.993Z,2998.00
2023-04-15T10:53:38.986Z,2989.00
2023-04-15T10:54:39.019Z,2999.00
2023-04-15T10:55:38.964Z,3009.00
2023-04-15T10:56:38.951Z,2985.00
2023-04-15T10:57:38.957Z,3003.00
2023-04-15T10:58:38.928Z,2994.00
2023-04-15T10:59:38.941Z,3013.00
2023-04-15T11:00:38.935Z,3019.00
2023-04-15T11:01:38.937Z,3012.00
2023-04-15T11:02:39.069Z,3009.00
2023-04-15T11:03:39.206Z,3017.00
2023-04-15T11:04:40.948Z,3016.00
2023-04-15T11:05:38.862Z,3007.00
2023-04-15T11:06:38.775Z,3015.00
2023-04-15T11:07:38.713Z,3025.00
2023-04-15T11:08:38.653Z,3006.00
2023-04-15T11:09:38.614Z,2998.00
2023-04-15T11:10:38.588Z,3011.00
2023-04-15T11:11:38.471Z,3013.00
2023-04-15T11:12:38.429Z,3011.00
2023-04-15T11:13:38.362Z,3005.00
2023-04-15T11:14:38.280Z,3018.00
2023-04-15T11:15:38.209Z,3010.00
2023-04-15T11:16:38.162Z,3020.00
2023-04-15T11:17:38.134Z,3013.00
2023-04-15T11:18:38.037Z,3009.00
2023-04-15T11:19:37.966Z,3012.00
2023-04-15T11:20:37.894Z,3021.00
2023-04-15T11:21:37.825Z,3028.00
2023-04-15T11:22:37.779Z,3017.00
2023-04-15T11:23:37.684Z,3030.00
2023-04-15T11:24:37.650Z,3016.00
2023-04-15T11:25:37.560Z,3001.00
2023-04-15T11:26:37.500Z,3017.00
2023-04-15T11:27:37.439Z,3018.00
2023-04-15T11:28:38.282Z,3009.00
2023-04-15T11:29:37.342Z,3021.00
2023-04-15T11:30:37.260Z,3019.00
2023-04-15T11:31:37.206Z,3028.00
2023-04-15T11:32:37.143Z,3016.00
2023-04-15T11:33:37.060Z,3017.00
2023-04-15T11:34:37.002Z,3014.00
2023-04-15T11:35:36.991Z,3010.00
2023-04-15T11:36:36.866Z,3017.00
2023-04-15T11:37:36.814Z,3016.00
2023-04-15T11:38:36.731Z,3025.00
2023-04-15T11:39:36.662Z,3014.00
2023-04-15T11:40:36.633Z,3024.00
2023-04-15T11:41:36.544Z,3008.00
2023-04-15T11:42:48.583Z,3022.00
2023-04-15T11:43:37.407Z,3023.00
2023-04-15T11:44:36.348Z,3026.00
2023-04-15T11:45:36.310Z,3026.00
2023-04-15T11:46:36.244Z,3036.00
2023-04-15T11:47:36.217Z,3011.00
2023-04-15T11:48:36.114Z,3018.00
2023-04-15T11:49:36.044Z,3022.00
2023-04-15T11:50:35.979Z,3006.00
2023-04-15T11:51:35.912Z,3024.00
2023-04-15T11:52:35.851Z,3021.00
2023-04-15T11:53:35.774Z,3017.00
2023-04-15T11:54:35.737Z,3024.00
2023-04-15T11:55:35.742Z,3022.00
2023-04-15T11:56:35.661Z,3023.00
2023-04-15T11:57:35.594Z,3024.00
2023-04-15T11:58:35.546Z,3021.00
2023-04-15T11:59:44.484Z,3031.00
2023-04-15T12:00:36.414Z,3024.00
2023-04-15T12:01:35.466Z,3026.00
2023-04-15T12:02:35.335Z,3029.00
2023-04-15T12:03:35.395Z,3024.00
2023-04-15T12:04:35.362Z,3038.00
2023-04-15T12:05:35.097Z,3043.00
2023-04-15T12:06:35.086Z,3039.00
2023-04-15T12:07:34.957Z,3034.00
2023-04-15T12:08:34.874Z,3031.00
2023-04-15T12:09:34.817Z,3024.00
2023-04-15T12:10:34.761Z,3020.00
2023-04-15T12:11:34.729Z,3035.00
2023-04-15T12:12:34.713Z,3030.00
2023-04-15T12:13:34.700Z,3034.00
2023-04-15T12:14:34.717Z,3018.00
2023-04-15T12:15:34.718Z,3015.00
2023-04-15T12:16:37.100Z,3031.00
2023-04-15T12:17:51.619Z,3031.00